sensor_id;sensor_type;location;lat;lon;timestamp;P1;durP1;ratioP1;P2;durP2;ratioP2
3755;SDS011;1893;52.526;13.360;2023-09-18T00:01:36;11.20;;;10.10;;
3755;SDS011;1893;52.526;13.360;2023-09-18T00:04:04;9.73;;;8.93;;
3755;SDS011;1893;52.526;13.360;2023-09-18T00:06:30;10.33;;;8.97;;
3755;SDS011;1893;52.526;13.360;2023-09-18T00:08:57;10.47;;;9.50;;
3755;SDS011;1893;52.526;13.360;2023-09-18T00:11:23;10.27;;;9.27;;
3755;SDS011;1893;52.526;13.360;2023-09-18T00:13:48;10.00;;;9.13;;
3755;SDS011;1893;52.526;13.360;2023-09-18T00:16:14;10.90;;;9.80;;
3755;SDS011;1893;52.526;13.360;2023-09-18T00:18:40;8.87;;;8.07;;
3755;SDS011;1893;52.526;13.360;2023-09-18T00:21:07;10.33;;;9.33;;
3755;SDS011;1893;52.526;13.360;2023-09-18T00:23:35;14.07;;;10.23;;
3755;SDS011;1893;52.526;13.360;2023-09-18T00:26:01;12.20;;;9.90;;
3755;SDS011;1893;52.526;13.360;2023-09-18T00:28:27;10.23;;;9.23;;
3755;SDS011;1893;52.526;13.360;2023-09-18T00:30:52;9.73;;;8.90;;
3755;SDS011;1893;52.526;13.360;2023-09-18T00:33:18;10.20;;;9.20;;
3755;SDS011;1893;52.526;13.360;2023-09-18T00:35:51;10.33;;;9.43;;
3755;SDS011;1893;52.526;13.360;2023-09-18T00:38:17;9.90;;;9.00;;
3755;SDS011;1893;52.526;13.360;2023-09-18T00:40:43;10.90;;;9.80;;
3755;SDS011;1893;52.526;13.360;2023-09-18T00:43:09;10.33;;;9.30;;
3755;SDS011;1893;52.526;13.360;2023-09-18T00:45:38;10.27;;;9.17;;
3755;SDS011;1893;52.526;13.360;2023-09-18T00:48:07;10.70;;;9.53;;
3755;SDS011;1893;52.526;13.360;2023-09-18T00:50:33;10.17;;;9.23;;
3755;SDS011;1893;52.526;13.360;2023-09-18T00:52:59;9.70;;;8.90;;
3755;SDS011;1893;52.526;13.360;2023-09-18T00:55:27;10.00;;;9.00;;
3755;SDS011;1893;52.526;13.360;2023-09-18T00:57:54;11.40;;;10.30;;
3755;SDS011;1893;52.526;13.360;2023-09-18T01:00:20;11.80;;;8.80;;
3755;SDS011;1893;52.526;13.360;2023-09-18T01:02:47;9.97;;;9.00;;
3755;SDS011;1893;52.526;13.360;2023-09-18T01:05:13;10.17;;;9.17;;
3755;SDS011;1893;52.526;13.360;2023-09-18T01:07:41;10.93;;;9.63;;
3755;SDS011;1893;52.526;13.360;2023-09-18T01:10:07;9.77;;;8.87;;
3755;SDS011;1893;52.526;13.360;2023-09-18T01:12:40;9.63;;;8.73;;
3755;SDS011;1893;52.526;13.360;2023-09-18T01:15:33;9.33;;;8.43;;
3755;SDS011;1893;52.526;13.360;2023-09-18T01:18:02;9.83;;;8.87;;
3755;SDS011;1893;52.526;13.360;2023-09-18T01:20:28;9.50;;;8.70;;
3755;SDS011;1893;52.526;13.360;2023-09-18T01:22:54;9.87;;;8.97;;
3755;SDS011;1893;52.526;13.360;2023-09-18T01:25:19;9.40;;;8.47;;
3755;SDS011;1893;52.526;13.360;2023-09-18T01:27:45;8.93;;;8.10;;
3755;SDS011;1893;52.526;13.360;2023-09-18T01:30:11;10.07;;;9.07;;
3755;SDS011;1893;52.526;13.360;2023-09-18T01:32:38;9.17;;;8.37;;
3755;SDS011;1893;52.526;13.360;2023-09-18T01:35:05;9.50;;;8.60;;
3755;SDS011;1893;52.526;13.360;2023-09-18T01:37:32;10.10;;;9.10;;
3755;SDS011;1893;52.526;13.360;2023-09-18T01:40:00;10.20;;;9.30;;
3755;SDS011;1893;52.526;13.360;2023-09-18T01:42:31;10.10;;;9.20;;
3755;SDS011;1893;52.526;13.360;2023-09-18T01:44:58;9.57;;;8.57;;
3755;SDS011;1893;52.526;13.360;2023-09-18T01:47:24;10.10;;;9.00;;
3755;SDS011;1893;52.526;13.360;2023-09-18T01:49:52;9.27;;;8.47;;
3755;SDS011;1893;52.526;13.360;2023-09-18T01:52:17;9.50;;;8.67;;
3755;SDS011;1893;52.526;13.360;2023-09-18T01:54:43;10.60;;;8.73;;
3755;SDS011;1893;52.526;13.360;2023-09-18T01:57:09;11.63;;;8.80;;
3755;SDS011;1893;52.526;13.360;2023-09-18T01:59:35;9.10;;;7.87;;
3755;SDS011;1893;52.526;13.360;2023-09-18T02:02:00;10.50;;;9.40;;
3755;SDS011;1893;52.526;13.360;2023-09-18T02:04:28;9.03;;;8.33;;
3755;SDS011;1893;52.526;13.360;2023-09-18T02:06:55;9.50;;;8.60;;
3755;SDS011;1893;52.526;13.360;2023-09-18T02:09:22;10.30;;;9.30;;
3755;SDS011;1893;52.526;13.360;2023-09-18T02:11:47;9.80;;;8.80;;
3755;SDS011;1893;52.526;13.360;2023-09-18T02:14:13;9.70;;;8.80;;
3755;SDS011;1893;52.526;13.360;2023-09-18T02:16:40;10.27;;;9.27;;
3755;SDS011;1893;52.526;13.360;2023-09-18T02:19:07;9.13;;;8.00;;
3755;SDS011;1893;52.526;13.360;2023-09-18T02:21:34;9.00;;;8.07;;
3755;SDS011;1893;52.526;13.360;2023-09-18T02:24:00;9.70;;;8.80;;
3755;SDS011;1893;52.526;13.360;2023-09-18T02:26:25;8.67;;;7.83;;
3755;SDS011;1893;52.526;13.360;2023-09-18T02:28:55;9.20;;;8.30;;
3755;SDS011;1893;52.526;13.360;2023-09-18T02:31:22;9.83;;;8.63;;
3755;SDS011;1893;52.526;13.360;2023-09-18T02:33:48;8.10;;;7.40;;
3755;SDS011;1893;52.526;13.360;2023-09-18T02:36:14;8.93;;;8.07;;
3755;SDS011;1893;52.526;13.360;2023-09-18T02:38:40;10.10;;;8.77;;
3755;SDS011;1893;52.526;13.360;2023-09-18T02:41:06;9.80;;;8.53;;
3755;SDS011;1893;52.526;13.360;2023-09-18T02:43:31;9.90;;;8.90;;
3755;SDS011;1893;52.526;13.360;2023-09-18T02:45:57;9.23;;;8.30;;
3755;SDS011;1893;52.526;13.360;2023-09-18T02:48:23;11.47;;;9.07;;
3755;SDS011;1893;52.526;13.360;2023-09-18T02:50:48;9.07;;;8.23;;
3755;SDS011;1893;52.526;13.360;2023-09-18T02:53:21;9.83;;;8.07;;
3755;SDS011;1893;52.526;13.360;2023-09-18T02:55:48;9.93;;;9.00;;
3755;SDS011;1893;52.526;13.360;2023-09-18T02:58:15;10.03;;;9.03;;
3755;SDS011;1893;52.526;13.360;2023-09-18T03:00:44;9.67;;;8.77;;
3755;SDS011;1893;52.526;13.360;2023-09-18T03:03:10;9.57;;;8.67;;
3755;SDS011;1893;52.526;13.360;2023-09-18T03:05:37;9.70;;;8.80;;
3755;SDS011;1893;52.526;13.360;2023-09-18T03:08:04;10.53;;;8.63;;
3755;SDS011;1893;52.526;13.360;2023-09-18T03:10:33;10.93;;;8.93;;
3755;SDS011;1893;52.526;13.360;2023-09-18T03:13:00;8.97;;;8.10;;
3755;SDS011;1893;52.526;13.360;2023-09-18T03:15:26;9.20;;;8.30;;
3755;SDS011;1893;52.526;13.360;2023-09-18T03:17:52;9.60;;;8.73;;
3755;SDS011;1893;52.526;13.360;2023-09-18T03:20:17;9.80;;;8.90;;
3755;SDS011;1893;52.526;13.360;2023-09-18T03:22:43;9.73;;;8.83;;
3755;SDS011;1893;52.526;13.360;2023-09-18T03:25:09;10.20;;;9.30;;
3755;SDS011;1893;52.526;13.360;2023-09-18T03:27:35;10.97;;;8.60;;
3755;SDS011;1893;52.526;13.360;2023-09-18T03:30:00;10.20;;;8.47;;
3755;SDS011;1893;52.526;13.360;2023-09-18T03:32:26;9.80;;;8.83;;
3755;SDS011;1893;52.526;13.360;2023-09-18T03:34:52;9.50;;;8.60;;
3755;SDS011;1893;52.526;13.360;2023-09-18T03:37:18;9.00;;;8.10;;
3755;SDS011;1893;52.526;13.360;2023-09-18T03:39:44;8.83;;;8.03;;
3755;SDS011;1893;52.526;13.360;2023-09-18T03:42:10;10.30;;;9.17;;
3755;SDS011;1893;52.526;13.360;2023-09-18T03:44:35;9.10;;;8.20;;
3755;SDS011;1893;52.526;13.360;2023-09-18T03:47:02;10.00;;;8.40;;
3755;SDS011;1893;52.526;13.360;2023-09-18T03:49:28;9.20;;;8.40;;
3755;SDS011;1893;52.526;13.360;2023-09-18T03:51:54;9.70;;;8.80;;
3755;SDS011;1893;52.526;13.360;2023-09-18T03:54:20;10.23;;;9.23;;
3755;SDS011;1893;52.526;13.360;2023-09-18T03:56:46;9.57;;;8.67;;
3755;SDS011;1893;52.526;13.360;2023-09-18T03:59:12;9.37;;;8.53;;
3755;SDS011;1893;52.526;13.360;2023-09-18T04:01:38;9.97;;;9.00;;
3755;SDS011;1893;52.526;13.360;2023-09-18T04:04:04;9.87;;;9.07;;
3755;SDS011;1893;52.526;13.360;2023-09-18T04:06:37;11.00;;;9.47;;
3755;SDS011;1893;52.526;13.360;2023-09-18T04:09:07;10.03;;;9.03;;
3755;SDS011;1893;52.526;13.360;2023-09-18T04:11:33;10.43;;;8.60;;
3755;SDS011;1893;52.526;13.360;2023-09-18T04:13:59;10.37;;;9.37;;
3755;SDS011;1893;52.526;13.360;2023-09-18T04:16:30;10.10;;;9.10;;
3755;SDS011;1893;52.526;13.360;2023-09-18T04:18:56;10.77;;;9.67;;
3755;SDS011;1893;52.526;13.360;2023-09-18T04:21:22;9.50;;;8.50;;
3755;SDS011;1893;52.526;13.360;2023-09-18T04:23:48;9.10;;;8.20;;
3755;SDS011;1893;52.526;13.360;2023-09-18T04:26:20;10.23;;;9.17;;
3755;SDS011;1893;52.526;13.360;2023-09-18T04:28:46;9.00;;;8.20;;
3755;SDS011;1893;52.526;13.360;2023-09-18T04:31:12;9.53;;;8.67;;
3755;SDS011;1893;52.526;13.360;2023-09-18T04:33:38;9.80;;;8.90;;
3755;SDS011;1893;52.526;13.360;2023-09-18T04:36:04;9.60;;;8.70;;
3755;SDS011;1893;52.526;13.360;2023-09-18T04:38:29;10.50;;;9.40;;
3755;SDS011;1893;52.526;13.360;2023-09-18T04:40:58;10.30;;;9.20;;
3755;SDS011;1893;52.526;13.360;2023-09-18T04:43:24;9.87;;;8.90;;
3755;SDS011;1893;52.526;13.360;2023-09-18T04:45:50;10.87;;;9.87;;
3755;SDS011;1893;52.526;13.360;2023-09-18T04:48:16;9.67;;;8.73;;
3755;SDS011;1893;52.526;13.360;2023-09-18T04:50:42;13.90;;;9.60;;
3755;SDS011;1893;52.526;13.360;2023-09-18T04:53:10;9.57;;;8.67;;
3755;SDS011;1893;52.526;13.360;2023-09-18T04:55:37;9.63;;;8.77;;
3755;SDS011;1893;52.526;13.360;2023-09-18T04:58:03;9.03;;;8.13;;
3755;SDS011;1893;52.526;13.360;2023-09-18T05:00:30;11.40;;;9.70;;
3755;SDS011;1893;52.526;13.360;2023-09-18T05:02:57;16.97;;;9.90;;
3755;SDS011;1893;52.526;13.360;2023-09-18T05:05:25;10.27;;;9.17;;
3755;SDS011;1893;52.526;13.360;2023-09-18T05:07:51;9.20;;;8.30;;
3755;SDS011;1893;52.526;13.360;2023-09-18T05:10:16;9.60;;;8.60;;
3755;SDS011;1893;52.526;13.360;2023-09-18T05:12:42;11.40;;;8.60;;
3755;SDS011;1893;52.526;13.360;2023-09-18T05:15:08;10.23;;;9.23;;
3755;SDS011;1893;52.526;13.360;2023-09-18T05:17:44;10.90;;;9.80;;
3755;SDS011;1893;52.526;13.360;2023-09-18T05:20:12;11.13;;;10.03;;
3755;SDS011;1893;52.526;13.360;2023-09-18T05:22:40;10.37;;;9.30;;
3755;SDS011;1893;52.526;13.360;2023-09-18T05:25:08;9.30;;;8.40;;
3755;SDS011;1893;52.526;13.360;2023-09-18T05:27:35;10.00;;;9.00;;
3755;SDS011;1893;52.526;13.360;2023-09-18T05:30:09;9.17;;;8.27;;
3755;SDS011;1893;52.526;13.360;2023-09-18T05:32:43;9.47;;;8.67;;
3755;SDS011;1893;52.526;13.360;2023-09-18T05:35:09;10.23;;;9.03;;
3755;SDS011;1893;52.526;13.360;2023-09-18T05:37:39;11.23;;;8.40;;
3755;SDS011;1893;52.526;13.360;2023-09-18T05:40:06;12.00;;;10.03;;
3755;SDS011;1893;52.526;13.360;2023-09-18T05:42:46;10.30;;;9.30;;
3755;SDS011;1893;52.526;13.360;2023-09-18T05:45:12;9.60;;;8.70;;
3755;SDS011;1893;52.526;13.360;2023-09-18T05:47:38;9.97;;;9.07;;
3755;SDS011;1893;52.526;13.360;2023-09-18T05:50:05;9.63;;;8.73;;
3755;SDS011;1893;52.526;13.360;2023-09-18T05:52:32;10.80;;;9.37;;
3755;SDS011;1893;52.526;13.360;2023-09-18T05:54:59;14.17;;;9.93;;
3755;SDS011;1893;52.526;13.360;2023-09-18T05:57:25;10.00;;;9.00;;
3755;SDS011;1893;52.526;13.360;2023-09-18T05:59:52;10.30;;;9.20;;
3755;SDS011;1893;52.526;13.360;2023-09-18T06:02:18;9.63;;;8.13;;
3755;SDS011;1893;52.526;13.360;2023-09-18T06:04:45;8.67;;;7.87;;
3755;SDS011;1893;52.526;13.360;2023-09-18T06:07:11;9.37;;;8.47;;
3755;SDS011;1893;52.526;13.360;2023-09-18T06:09:38;10.80;;;9.50;;
3755;SDS011;1893;52.526;13.360;2023-09-18T06:12:04;13.40;;;9.47;;
3755;SDS011;1893;52.526;13.360;2023-09-18T06:14:30;9.50;;;8.40;;
3755;SDS011;1893;52.526;13.360;2023-09-18T06:16:56;11.17;;;10.00;;
3755;SDS011;1893;52.526;13.360;2023-09-18T06:19:22;15.50;;;8.70;;
3755;SDS011;1893;52.526;13.360;2023-09-18T06:21:48;10.33;;;8.93;;
3755;SDS011;1893;52.526;13.360;2023-09-18T06:24:13;10.70;;;9.70;;
3755;SDS011;1893;52.526;13.360;2023-09-18T06:26:39;10.30;;;9.30;;
3755;SDS011;1893;52.526;13.360;2023-09-18T06:29:05;10.80;;;8.73;;
3755;SDS011;1893;52.526;13.360;2023-09-18T06:31:30;12.07;;;10.77;;
3755;SDS011;1893;52.526;13.360;2023-09-18T06:33:56;9.93;;;8.93;;
3755;SDS011;1893;52.526;13.360;2023-09-18T06:36:22;9.60;;;8.63;;
3755;SDS011;1893;52.526;13.360;2023-09-18T06:38:48;10.40;;;8.43;;
3755;SDS011;1893;52.526;13.360;2023-09-18T06:41:13;11.80;;;9.70;;
3755;SDS011;1893;52.526;13.360;2023-09-18T06:43:39;10.10;;;8.77;;
3755;SDS011;1893;52.526;13.360;2023-09-18T06:46:06;8.97;;;8.07;;
3755;SDS011;1893;52.526;13.360;2023-09-18T06:48:32;14.63;;;8.40;;
3755;SDS011;1893;52.526;13.360;2023-09-18T06:50:58;8.97;;;8.10;;
3755;SDS011;1893;52.526;13.360;2023-09-18T06:53:25;9.03;;;8.33;;
3755;SDS011;1893;52.526;13.360;2023-09-18T06:55:52;12.00;;;9.60;;
3755;SDS011;1893;52.526;13.360;2023-09-18T06:58:18;10.47;;;8.30;;
3755;SDS011;1893;52.526;13.360;2023-09-18T07:00:44;9.77;;;8.17;;
3755;SDS011;1893;52.526;13.360;2023-09-18T07:03:09;8.73;;;7.70;;
3755;SDS011;1893;52.526;13.360;2023-09-18T07:05:36;8.60;;;7.80;;
3755;SDS011;1893;52.526;13.360;2023-09-18T07:08:02;9.13;;;7.07;;
3755;SDS011;1893;52.526;13.360;2023-09-18T07:10:30;10.33;;;8.37;;
3755;SDS011;1893;52.526;13.360;2023-09-18T07:12:58;9.10;;;8.30;;
3755;SDS011;1893;52.526;13.360;2023-09-18T07:15:23;8.83;;;7.03;;
3755;SDS011;1893;52.526;13.360;2023-09-18T07:17:49;9.77;;;7.57;;
3755;SDS011;1893;52.526;13.360;2023-09-18T07:20:14;8.50;;;7.07;;
3755;SDS011;1893;52.526;13.360;2023-09-18T07:22:41;7.80;;;7.10;;
3755;SDS011;1893;52.526;13.360;2023-09-18T07:25:10;10.43;;;6.47;;
3755;SDS011;1893;52.526;13.360;2023-09-18T07:27:36;8.63;;;7.90;;
3755;SDS011;1893;52.526;13.360;2023-09-18T07:30:04;9.13;;;7.37;;
3755;SDS011;1893;52.526;13.360;2023-09-18T07:32:30;10.60;;;6.70;;
3755;SDS011;1893;52.526;13.360;2023-09-18T07:34:56;9.20;;;8.00;;
3755;SDS011;1893;52.526;13.360;2023-09-18T07:37:22;9.83;;;6.30;;
3755;SDS011;1893;52.526;13.360;2023-09-18T07:39:48;7.33;;;6.60;;
3755;SDS011;1893;52.526;13.360;2023-09-18T07:42:14;8.50;;;6.90;;
3755;SDS011;1893;52.526;13.360;2023-09-18T07:44:39;9.93;;;6.77;;
3755;SDS011;1893;52.526;13.360;2023-09-18T07:47:05;7.37;;;6.77;;
3755;SDS011;1893;52.526;13.360;2023-09-18T07:49:30;7.90;;;6.50;;
3755;SDS011;1893;52.526;13.360;2023-09-18T07:51:56;7.63;;;6.90;;
3755;SDS011;1893;52.526;13.360;2023-09-18T07:54:22;7.83;;;7.10;;
3755;SDS011;1893;52.526;13.360;2023-09-18T07:56:47;10.57;;;6.77;;
3755;SDS011;1893;52.526;13.360;2023-09-18T07:59:13;7.17;;;6.50;;
3755;SDS011;1893;52.526;13.360;2023-09-18T08:01:39;7.70;;;5.93;;
3755;SDS011;1893;52.526;13.360;2023-09-18T08:04:06;7.53;;;6.83;;
3755;SDS011;1893;52.526;13.360;2023-09-18T08:06:31;7.03;;;6.40;;
3755;SDS011;1893;52.526;13.360;2023-09-18T08:08:57;9.50;;;6.73;;
3755;SDS011;1893;52.526;13.360;2023-09-18T08:11:23;8.23;;;6.00;;
3755;SDS011;1893;52.526;13.360;2023-09-18T08:13:48;7.57;;;6.13;;
3755;SDS011;1893;52.526;13.360;2023-09-18T08:16:14;6.57;;;5.97;;
3755;SDS011;1893;52.526;13.360;2023-09-18T08:18:40;6.70;;;6.10;;
3755;SDS011;1893;52.526;13.360;2023-09-18T08:21:06;8.50;;;6.67;;
3755;SDS011;1893;52.526;13.360;2023-09-18T08:23:34;7.67;;;6.90;;
3755;SDS011;1893;52.526;13.360;2023-09-18T08:26:01;6.60;;;6.00;;
3755;SDS011;1893;52.526;13.360;2023-09-18T08:28:28;6.50;;;6.00;;
3755;SDS011;1893;52.526;13.360;2023-09-18T08:30:54;6.97;;;6.37;;
3755;SDS011;1893;52.526;13.360;2023-09-18T08:33:20;7.17;;;6.57;;
3755;SDS011;1893;52.526;13.360;2023-09-18T08:35:46;8.87;;;5.23;;
3755;SDS011;1893;52.526;13.360;2023-09-18T08:38:14;7.63;;;6.27;;
3755;SDS011;1893;52.526;13.360;2023-09-18T08:40:41;5.90;;;5.40;;
3755;SDS011;1893;52.526;13.360;2023-09-18T08:43:10;6.87;;;6.00;;
3755;SDS011;1893;52.526;13.360;2023-09-18T08:48:11;6.43;;;5.43;;
3755;SDS011;1893;52.526;13.360;2023-09-18T08:50:37;7.73;;;5.13;;
3755;SDS011;1893;52.526;13.360;2023-09-18T08:53:04;7.97;;;5.67;;
3755;SDS011;1893;52.526;13.360;2023-09-18T08:55:29;6.10;;;5.60;;
3755;SDS011;1893;52.526;13.360;2023-09-18T08:57:57;6.33;;;5.70;;
3755;SDS011;1893;52.526;13.360;2023-09-18T09:00:25;6.53;;;5.97;;
3755;SDS011;1893;52.526;13.360;2023-09-18T09:02:51;13.63;;;6.37;;
3755;SDS011;1893;52.526;13.360;2023-09-18T09:05:19;7.50;;;5.57;;
3755;SDS011;1893;52.526;13.360;2023-09-18T09:07:46;5.77;;;5.33;;
3755;SDS011;1893;52.526;13.360;2023-09-18T09:10:11;5.87;;;5.43;;
3755;SDS011;1893;52.526;13.360;2023-09-18T09:12:58;6.90;;;5.70;;
3755;SDS011;1893;52.526;13.360;2023-09-18T09:15:29;6.20;;;5.60;;
3755;SDS011;1893;52.526;13.360;2023-09-18T09:18:04;6.13;;;5.53;;
3755;SDS011;1893;52.526;13.360;2023-09-18T09:20:31;6.77;;;6.17;;
3755;SDS011;1893;52.526;13.360;2023-09-18T09:23:01;6.03;;;5.63;;
3755;SDS011;1893;52.526;13.360;2023-09-18T09:25:29;4.97;;;4.60;;
3755;SDS011;1893;52.526;13.360;2023-09-18T09:27:59;6.30;;;5.70;;
3755;SDS011;1893;52.526;13.360;2023-09-18T09:30:28;8.07;;;5.43;;
3755;SDS011;1893;52.526;13.360;2023-09-18T09:32:55;5.90;;;5.20;;
3755;SDS011;1893;52.526;13.360;2023-09-18T09:35:25;7.23;;;6.50;;
3755;SDS011;1893;52.526;13.360;2023-09-18T09:37:53;5.07;;;4.67;;
3755;SDS011;1893;52.526;13.360;2023-09-18T09:40:23;5.20;;;4.80;;
3755;SDS011;1893;52.526;13.360;2023-09-18T09:42:56;6.70;;;6.20;;
3755;SDS011;1893;52.526;13.360;2023-09-18T09:45:26;7.10;;;5.83;;
3755;SDS011;1893;52.526;13.360;2023-09-18T09:47:56;6.50;;;5.60;;
3755;SDS011;1893;52.526;13.360;2023-09-18T09:50:22;5.87;;;5.20;;
3755;SDS011;1893;52.526;13.360;2023-09-18T09:52:51;6.60;;;6.00;;
3755;SDS011;1893;52.526;13.360;2023-09-18T09:57:52;10.83;;;5.70;;
3755;SDS011;1893;52.526;13.360;2023-09-18T10:00:22;6.03;;;5.20;;
3755;SDS011;1893;52.526;13.360;2023-09-18T10:02:59;6.33;;;4.90;;
3755;SDS011;1893;52.526;13.360;2023-09-18T10:05:34;6.10;;;5.50;;
3755;SDS011;1893;52.526;13.360;2023-09-18T10:08:06;6.07;;;5.57;;
3755;SDS011;1893;52.526;13.360;2023-09-18T10:10:37;6.37;;;5.40;;
3755;SDS011;1893;52.526;13.360;2023-09-18T10:13:09;5.63;;;4.90;;
3755;SDS011;1893;52.526;13.360;2023-09-18T10:15:37;6.20;;;5.37;;
3755;SDS011;1893;52.526;13.360;2023-09-18T10:18:07;5.40;;;4.90;;
3755;SDS011;1893;52.526;13.360;2023-09-18T10:20:42;6.23;;;5.20;;
3755;SDS011;1893;52.526;13.360;2023-09-18T10:23:12;7.60;;;5.37;;
3755;SDS011;1893;52.526;13.360;2023-09-18T10:26:01;6.33;;;5.83;;
3755;SDS011;1893;52.526;13.360;2023-09-18T10:28:30;6.20;;;5.37;;
3755;SDS011;1893;52.526;13.360;2023-09-18T10:30:57;5.10;;;4.60;;
3755;SDS011;1893;52.526;13.360;2023-09-18T10:33:24;6.00;;;5.17;;
3755;SDS011;1893;52.526;13.360;2023-09-18T10:35:50;5.53;;;4.97;;
3755;SDS011;1893;52.526;13.360;2023-09-18T10:38:18;5.30;;;4.80;;
3755;SDS011;1893;52.526;13.360;2023-09-18T10:40:46;5.17;;;4.67;;
3755;SDS011;1893;52.526;13.360;2023-09-18T10:43:12;5.53;;;5.13;;
3755;SDS011;1893;52.526;13.360;2023-09-18T10:45:41;8.40;;;4.40;;
3755;SDS011;1893;52.526;13.360;2023-09-18T10:48:09;4.90;;;4.50;;
3755;SDS011;1893;52.526;13.360;2023-09-18T10:50:35;6.23;;;4.40;;
3755;SDS011;1893;52.526;13.360;2023-09-18T10:53:02;5.30;;;4.90;;
3755;SDS011;1893;52.526;13.360;2023-09-18T10:55:27;5.23;;;4.83;;
3755;SDS011;1893;52.526;13.360;2023-09-18T10:57:57;5.10;;;4.70;;
3755;SDS011;1893;52.526;13.360;2023-09-18T11:00:24;10.43;;;4.67;;
3755;SDS011;1893;52.526;13.360;2023-09-18T11:02:52;5.57;;;5.03;;
3755;SDS011;1893;52.526;13.360;2023-09-18T11:05:34;5.80;;;5.30;;
3755;SDS011;1893;52.526;13.360;2023-09-18T11:11:00;6.50;;;4.80;;
3755;SDS011;1893;52.526;13.360;2023-09-18T11:13:45;6.63;;;5.90;;
3755;SDS011;1893;52.526;13.360;2023-09-18T11:18:52;6.17;;;5.67;;
3755;SDS011;1893;52.526;13.360;2023-09-18T11:21:24;6.10;;;5.57;;
3755;SDS011;1893;52.526;13.360;2023-09-18T11:24:01;7.63;;;6.03;;
3755;SDS011;1893;52.526;13.360;2023-09-18T11:26:29;5.07;;;4.67;;
3755;SDS011;1893;52.526;13.360;2023-09-18T11:29:06;6.70;;;6.00;;
3755;SDS011;1893;52.526;13.360;2023-09-18T11:31:53;10.43;;;5.17;;
3755;SDS011;1893;52.526;13.360;2023-09-18T11:36:47;7.23;;;5.93;;
3755;SDS011;1893;52.526;13.360;2023-09-18T11:39:14;8.77;;;5.90;;
3755;SDS011;1893;52.526;13.360;2023-09-18T11:42:06;16.73;;;5.63;;
3755;SDS011;1893;52.526;13.360;2023-09-18T11:44:36;6.17;;;5.67;;
3755;SDS011;1893;52.526;13.360;2023-09-18T11:47:07;5.77;;;5.17;;
3755;SDS011;1893;52.526;13.360;2023-09-18T11:49:37;11.00;;;6.17;;
3755;SDS011;1893;52.526;13.360;2023-09-18T11:52:06;6.10;;;5.57;;
3755;SDS011;1893;52.526;13.360;2023-09-18T11:54:33;7.70;;;5.00;;
3755;SDS011;1893;52.526;13.360;2023-09-18T11:57:04;6.53;;;5.80;;
3755;SDS011;1893;52.526;13.360;2023-09-18T11:59:34;11.87;;;5.60;;
3755;SDS011;1893;52.526;13.360;2023-09-18T12:02:04;8.20;;;6.37;;
3755;SDS011;1893;52.526;13.360;2023-09-18T12:04:31;6.40;;;5.80;;
3755;SDS011;1893;52.526;13.360;2023-09-18T12:06:58;6.00;;;5.50;;
3755;SDS011;1893;52.526;13.360;2023-09-18T12:09:28;10.73;;;5.50;;
3755;SDS011;1893;52.526;13.360;2023-09-18T12:11:56;5.90;;;5.30;;
3755;SDS011;1893;52.526;13.360;2023-09-18T12:14:23;6.03;;;5.43;;
3755;SDS011;1893;52.526;13.360;2023-09-18T12:16:49;5.70;;;5.20;;
3755;SDS011;1893;52.526;13.360;2023-09-18T12:19:18;11.60;;;5.93;;
3755;SDS011;1893;52.526;13.360;2023-09-18T12:21:47;6.30;;;5.37;;
3755;SDS011;1893;52.526;13.360;2023-09-18T12:24:14;5.30;;;4.87;;
3755;SDS011;1893;52.526;13.360;2023-09-18T12:26:40;5.80;;;5.30;;
3755;SDS011;1893;52.526;13.360;2023-09-18T12:29:06;5.60;;;5.10;;
3755;SDS011;1893;52.526;13.360;2023-09-18T12:31:32;6.17;;;5.50;;
3755;SDS011;1893;52.526;13.360;2023-09-18T12:33:58;7.07;;;5.03;;
3755;SDS011;1893;52.526;13.360;2023-09-18T12:36:26;5.63;;;4.90;;
3755;SDS011;1893;52.526;13.360;2023-09-18T12:38:55;9.03;;;5.40;;
3755;SDS011;1893;52.526;13.360;2023-09-18T12:41:25;5.80;;;5.07;;
3755;SDS011;1893;52.526;13.360;2023-09-18T12:43:51;5.33;;;4.93;;
3755;SDS011;1893;52.526;13.360;2023-09-18T12:46:19;7.20;;;5.00;;
3755;SDS011;1893;52.526;13.360;2023-09-18T12:48:46;6.60;;;5.47;;
3755;SDS011;1893;52.526;13.360;2023-09-18T12:51:13;7.07;;;5.33;;
3755;SDS011;1893;52.526;13.360;2023-09-18T12:53:39;6.00;;;5.40;;
3755;SDS011;1893;52.526;13.360;2023-09-18T12:56:07;5.53;;;5.10;;
3755;SDS011;1893;52.526;13.360;2023-09-18T12:58:34;5.67;;;4.17;;
3755;SDS011;1893;52.526;13.360;2023-09-18T13:01:03;6.63;;;5.10;;
3755;SDS011;1893;52.526;13.360;2023-09-18T13:03:34;6.30;;;4.47;;
3755;SDS011;1893;52.526;13.360;2023-09-18T13:06:08;13.60;;;4.70;;
3755;SDS011;1893;52.526;13.360;2023-09-18T13:08:34;9.37;;;5.80;;
3755;SDS011;1893;52.526;13.360;2023-09-18T13:11:00;6.07;;;5.47;;
3755;SDS011;1893;52.526;13.360;2023-09-18T13:13:31;7.57;;;4.90;;
3755;SDS011;1893;52.526;13.360;2023-09-18T13:15:57;5.70;;;4.80;;
3755;SDS011;1893;52.526;13.360;2023-09-18T13:18:24;9.53;;;4.60;;
3755;SDS011;1893;52.526;13.360;2023-09-18T13:20:51;8.77;;;4.70;;
3755;SDS011;1893;52.526;13.360;2023-09-18T13:23:17;7.67;;;5.37;;
3755;SDS011;1893;52.526;13.360;2023-09-18T13:25:43;6.63;;;5.17;;
3755;SDS011;1893;52.526;13.360;2023-09-18T13:28:11;7.50;;;5.43;;
3755;SDS011;1893;52.526;13.360;2023-09-18T13:30:38;6.50;;;5.13;;
3755;SDS011;1893;52.526;13.360;2023-09-18T13:33:07;6.53;;;5.60;;
3755;SDS011;1893;52.526;13.360;2023-09-18T13:35:37;6.07;;;5.47;;
3755;SDS011;1893;52.526;13.360;2023-09-18T13:38:04;12.00;;;5.27;;
3755;SDS011;1893;52.526;13.360;2023-09-18T13:40:33;6.33;;;5.73;;
3755;SDS011;1893;52.526;13.360;2023-09-18T13:43:03;5.90;;;5.30;;
3755;SDS011;1893;52.526;13.360;2023-09-18T13:45:31;9.00;;;6.80;;
3755;SDS011;1893;52.526;13.360;2023-09-18T13:47:57;9.13;;;5.10;;
3755;SDS011;1893;52.526;13.360;2023-09-18T13:50:24;7.00;;;5.77;;
3755;SDS011;1893;52.526;13.360;2023-09-18T13:52:49;11.90;;;6.43;;
3755;SDS011;1893;52.526;13.360;2023-09-18T13:55:15;12.33;;;5.20;;
3755;SDS011;1893;52.526;13.360;2023-09-18T13:57:41;6.60;;;5.20;;
3755;SDS011;1893;52.526;13.360;2023-09-18T14:00:07;8.90;;;5.90;;
3755;SDS011;1893;52.526;13.360;2023-09-18T14:02:37;9.43;;;6.47;;
3755;SDS011;1893;52.526;13.360;2023-09-18T14:05:03;8.43;;;6.60;;
3755;SDS011;1893;52.526;13.360;2023-09-18T14:07:29;8.10;;;6.60;;
3755;SDS011;1893;52.526;13.360;2023-09-18T14:09:55;14.63;;;5.57;;
3755;SDS011;1893;52.526;13.360;2023-09-18T14:12:20;9.67;;;5.40;;
3755;SDS011;1893;52.526;13.360;2023-09-18T14:14:46;7.33;;;5.80;;
3755;SDS011;1893;52.526;13.360;2023-09-18T14:17:12;10.93;;;4.93;;
3755;SDS011;1893;52.526;13.360;2023-09-18T14:19:37;5.93;;;4.60;;
3755;SDS011;1893;52.526;13.360;2023-09-18T14:22:04;6.07;;;5.10;;
3755;SDS011;1893;52.526;13.360;2023-09-18T14:24:31;6.90;;;4.73;;
3755;SDS011;1893;52.526;13.360;2023-09-18T14:26:59;5.37;;;4.40;;
3755;SDS011;1893;52.526;13.360;2023-09-18T14:29:25;6.70;;;5.00;;
3755;SDS011;1893;52.526;13.360;2023-09-18T14:31:51;7.13;;;4.80;;
3755;SDS011;1893;52.526;13.360;2023-09-18T14:34:17;5.70;;;4.90;;
3755;SDS011;1893;52.526;13.360;2023-09-18T14:36:43;7.93;;;4.17;;
3755;SDS011;1893;52.526;13.360;2023-09-18T14:39:09;4.60;;;4.20;;
3755;SDS011;1893;52.526;13.360;2023-09-18T14:41:36;10.63;;;4.80;;
3755;SDS011;1893;52.526;13.360;2023-09-18T14:44:02;6.10;;;3.47;;
3755;SDS011;1893;52.526;13.360;2023-09-18T14:46:29;12.43;;;5.40;;
3755;SDS011;1893;52.526;13.360;2023-09-18T14:48:56;9.10;;;4.33;;
3755;SDS011;1893;52.526;13.360;2023-09-18T14:51:21;7.00;;;4.00;;
3755;SDS011;1893;52.526;13.360;2023-09-18T14:53:47;5.00;;;4.30;;
3755;SDS011;1893;52.526;13.360;2023-09-18T14:56:13;4.13;;;3.40;;
3755;SDS011;1893;52.526;13.360;2023-09-18T14:58:38;7.60;;;3.37;;
3755;SDS011;1893;52.526;13.360;2023-09-18T15:01:04;8.30;;;3.83;;
3755;SDS011;1893;52.526;13.360;2023-09-18T15:03:29;8.30;;;3.17;;
3755;SDS011;1893;52.526;13.360;2023-09-18T15:05:55;7.90;;;3.47;;
3755;SDS011;1893;52.526;13.360;2023-09-18T15:08:20;3.83;;;3.03;;
3755;SDS011;1893;52.526;13.360;2023-09-18T15:10:46;8.70;;;2.80;;
3755;SDS011;1893;52.526;13.360;2023-09-18T15:13:12;4.03;;;3.50;;